createdAt,value
2022-09-03T00:00:07.022Z,2.00
2022-09-03T00:02:45.881Z,2.00
2022-09-03T00:05:25.732Z,1.83
2022-09-03T00:08:10.283Z,2.00
2022-09-03T00:10:56.290Z,2.58
2022-09-03T00:13:31.855Z,1.80
2022-09-03T00:16:01.943Z,2.05
2022-09-03T00:18:33.507Z,1.58
2022-09-03T00:21:09.863Z,2.22
2022-09-03T00:23:40.835Z,2.10
2022-09-03T00:26:15.440Z,1.90
2022-09-03T00:28:48.523Z,1.70
2022-09-03T00:31:28.403Z,1.88
2022-09-03T00:34:05.268Z,2.10
2022-09-03T00:36:50.967Z,1.85
2022-09-03T00:39:21.429Z,1.98
2022-09-03T00:42:08.678Z,1.90
2022-09-03T00:44:48.660Z,2.00
2022-09-03T00:47:25.599Z,1.80
2022-09-03T00:50:31.181Z,1.85
2022-09-03T00:53:23.099Z,2.20
2022-09-03T00:56:02.562Z,2.13
2022-09-03T00:58:32.831Z,1.85
2022-09-03T01:01:06.094Z,1.95
2022-09-03T01:04:07.756Z,2.00
2022-09-03T01:06:58.603Z,2.30
2022-09-03T01:09:33.570Z,2.28
2022-09-03T01:12:18.806Z,1.70
2022-09-03T01:14:52.666Z,2.10
2022-09-03T01:17:33.003Z,1.95
2022-09-03T01:20:38.497Z,1.88
2022-09-03T01:23:27.743Z,1.83
2022-09-03T01:26:15.982Z,2.20
2022-09-03T01:29:07.508Z,2.03
2022-09-03T01:31:50.088Z,2.30
2022-09-03T01:34:45.040Z,2.42
2022-09-03T01:37:33.865Z,2.38
2022-09-03T01:40:38.674Z,2.30
2022-09-03T01:43:45.491Z,2.40
2022-09-03T01:46:24.973Z,2.47
2022-09-03T01:48:52.386Z,1.95
2022-09-03T01:51:25.447Z,2.50
2022-09-03T01:54:20.978Z,2.25
2022-09-03T01:57:35.326Z,2.20
2022-09-03T02:00:20.508Z,2.45
2022-09-03T02:02:51.589Z,2.20
2022-09-03T02:05:24.174Z,2.30
2022-09-03T02:07:57.154Z,2.40
2022-09-03T02:10:31.591Z,2.17
2022-09-03T02:13:09.854Z,2.55
2022-09-03T02:15:40.075Z,2.72
2022-09-03T02:18:15.295Z,2.50
2022-09-03T02:20:43.056Z,2.63
2022-09-03T02:23:11.127Z,3.17
2022-09-03T02:25:47.174Z,2.92
2022-09-03T02:28:16.996Z,3.28
2022-09-03T02:30:45.510Z,3.00
2022-09-03T02:33:13.014Z,3.30
2022-09-03T02:35:41.741Z,3.42
2022-09-03T02:38:11.820Z,4.03
2022-09-03T02:40:39.739Z,4.10
2022-09-03T02:43:14.102Z,4.90
2022-09-03T02:45:47.674Z,4.57
2022-09-03T02:48:22.888Z,4.47
2022-09-03T02:50:50.485Z,5.40
2022-09-03T02:53:18.089Z,5.05
2022-09-03T02:55:46.046Z,5.50
2022-09-03T02:58:14.040Z,5.45
2022-09-03T03:00:41.570Z,5.50
2022-09-03T03:03:08.983Z,5.18
2022-09-03T03:05:45.269Z,5.40
2022-09-03T03:08:15.346Z,5.57
2022-09-03T03:10:46.728Z,4.88
2022-09-03T03:13:14.499Z,5.30
2022-09-03T03:15:42.528Z,5.10
2022-09-03T03:18:12.104Z,4.95
2022-09-03T03:20:40.478Z,5.35
2022-09-03T03:23:09.007Z,5.30
2022-09-03T03:25:38.744Z,4.88
2022-09-03T03:28:07.119Z,4.75
2022-09-03T03:30:38.636Z,4.80
2022-09-03T03:33:07.515Z,4.95
2022-09-03T03:35:36.216Z,4.85
2022-09-03T03:38:04.131Z,5.35
2022-09-03T03:40:31.558Z,4.82
2022-09-03T03:42:59.122Z,4.90
2022-09-03T03:45:26.780Z,5.15
2022-09-03T03:47:58.244Z,5.70
2022-09-03T03:50:25.870Z,5.25
2022-09-03T03:52:53.247Z,5.68
2022-09-03T03:55:20.779Z,5.40
2022-09-03T03:57:48.227Z,5.57
2022-09-03T04:00:16.067Z,5.60
2022-09-03T04:02:43.739Z,5.00
2022-09-03T04:05:11.125Z,6.05
2022-09-03T04:07:38.916Z,5.95
2022-09-03T04:10:09.493Z,6.22
2022-09-03T04:12:36.927Z,5.72
2022-09-03T04:15:05.343Z,6.00
2022-09-03T04:17:32.897Z,5.93
2022-09-03T04:20:00.270Z,6.18
2022-09-03T04:22:29.515Z,6.53
2022-09-03T04:24:56.863Z,6.47
2022-09-03T04:27:24.859Z,6.00
2022-09-03T04:29:52.246Z,5.88
2022-09-03T04:32:38.170Z,6.38
2022-09-03T04:35:06.052Z,5.95
2022-09-03T04:37:33.578Z,6.15
2022-09-03T04:40:01.057Z,6.00
2022-09-03T04:42:28.495Z,6.57
2022-09-03T04:44:55.896Z,5.93
2022-09-03T04:47:23.594Z,5.43
2022-09-03T04:49:50.991Z,5.72
2022-09-03T04:52:19.581Z,5.35
2022-09-03T04:54:46.949Z,5.38
2022-09-03T04:57:14.347Z,5.13
2022-09-03T04:59:42.792Z,4.60
2022-09-03T05:02:10.502Z,5.10
2022-09-03T05:04:38.037Z,5.22
2022-09-03T05:07:05.455Z,4.35
2022-09-03T05:09:32.894Z,4.65
2022-09-03T05:12:02.434Z,4.63
2022-09-03T05:14:29.851Z,5.30
2022-09-03T05:16:57.286Z,5.05
2022-09-03T05:19:26.090Z,4.80
2022-09-03T05:21:53.468Z,3.80
2022-09-03T05:24:21.188Z,4.07
2022-09-03T05:26:49.147Z,3.80
2022-09-03T05:29:16.630Z,3.97
2022-09-03T05:31:44.067Z,3.95
2022-09-03T05:34:16.392Z,4.13
2022-09-03T05:36:47.102Z,3.90
2022-09-03T05:39:14.543Z,3.38
2022-09-03T05:41:44.945Z,4.00
2022-09-03T05:44:12.401Z,3.72
2022-09-03T05:46:41.943Z,3.45
2022-09-03T05:49:09.624Z,3.58
2022-09-03T05:51:39.868Z,3.35
2022-09-03T05:54:11.396Z,3.25
2022-09-03T05:56:40.261Z,3.30
2022-09-03T05:59:09.555Z,3.25
2022-09-03T06:01:39.387Z,3.20
2022-09-03T06:04:12.678Z,3.40
2022-09-03T06:06:42.610Z,3.30
2022-09-03T06:09:13.707Z,3.30
2022-09-03T06:11:42.636Z,3.30
2022-09-03T06:14:13.253Z,2.88
2022-09-03T06:16:43.588Z,2.45
2022-09-03T06:19:12.056Z,2.75
2022-09-03T06:21:44.707Z,2.50
2022-09-03T06:24:17.590Z,2.47
2022-09-03T06:26:45.511Z,2.38
2022-09-03T06:29:13.418Z,2.03
2022-09-03T06:31:40.942Z,1.95
2022-09-03T06:34:08.568Z,2.03
2022-09-03T06:36:36.142Z,4.30
2022-09-03T06:39:03.747Z,1.90
2022-09-03T06:41:35.487Z,2.10
2022-09-03T06:44:05.676Z,1.80
2022-09-03T06:46:39.091Z,1.60
2022-09-03T06:49:06.885Z,1.77
2022-09-03T06:51:34.449Z,2.05
2022-09-03T06:54:10.627Z,1.60
2022-09-03T06:56:41.243Z,2.03
2022-09-03T06:59:14.083Z,2.17
2022-09-03T07:01:45.310Z,2.15
2022-09-03T07:06:44.491Z,2.80
2022-09-03T07:09:13.408Z,2.30
2022-09-03T07:11:47.498Z,1.75
2022-09-03T07:14:17.415Z,2.70
2022-09-03T07:16:46.293Z,2.45
2022-09-03T07:19:14.266Z,2.53
2022-09-03T07:21:48.156Z,2.60
2022-09-03T07:24:18.129Z,2.45
2022-09-03T07:26:48.925Z,2.00
2022-09-03T07:29:20.607Z,2.30
2022-09-03T07:31:51.992Z,2.03
2022-09-03T07:34:22.121Z,2.13
2022-09-03T07:36:51.882Z,2.17
2022-09-03T07:39:19.994Z,2.30
2022-09-03T07:41:47.704Z,2.10
2022-09-03T07:44:20.210Z,2.50
2022-09-03T07:46:51.413Z,2.58
2022-09-03T07:49:21.219Z,2.70
2022-09-03T07:51:52.338Z,2.33
2022-09-03T07:54:21.573Z,2.15
2022-09-03T07:56:49.368Z,2.33
2022-09-03T07:59:16.739Z,2.20
2022-09-03T08:01:44.418Z,2.10
2022-09-03T08:04:11.967Z,1.85
2022-09-03T08:06:39.706Z,1.80
2022-09-03T08:09:11.362Z,1.70
2022-09-03T08:14:10.032Z,1.50
2022-09-03T08:16:47.978Z,1.70
2022-09-03T08:19:18.239Z,1.30
2022-09-03T08:21:45.991Z,1.60
2022-09-03T08:24:15.992Z,1.63
2022-09-03T08:26:47.609Z,1.63
2022-09-03T08:29:18.356Z,1.50
2022-09-03T08:31:45.888Z,1.23
2022-09-03T08:34:14.686Z,1.60
2022-09-03T08:36:42.407Z,1.30
2022-09-03T08:39:13.458Z,1.42
2022-09-03T08:42:11.587Z,1.33
2022-09-03T08:44:41.914Z,1.27
2022-09-03T08:48:06.757Z,1.00
2022-09-03T08:50:44.399Z,1.15
2022-09-03T08:53:46.202Z,1.10
2022-09-03T08:56:31.143Z,0.90
2022-09-03T08:59:00.819Z,0.88
2022-09-03T09:01:35.349Z,0.95
2022-09-03T09:04:24.469Z,1.05
2022-09-03T09:07:07.656Z,1.15
2022-09-03T09:10:07.430Z,1.20
2022-09-03T09:12:46.790Z,0.95
2022-09-03T09:15:42.930Z,1.02
2022-09-03T09:18:51.778Z,0.93
2022-09-03T09:21:27.880Z,1.10
2022-09-03T09:24:02.088Z,1.00
2022-09-03T09:26:30.103Z,1.08
2022-09-03T09:29:09.448Z,0.95
2022-09-03T09:31:40.078Z,1.08
2022-09-03T09:34:09.288Z,0.90
2022-09-03T09:36:52.242Z,0.95
2022-09-03T09:39:20.968Z,1.00
2022-09-03T09:42:10.037Z,1.00
2022-09-03T09:44:39.622Z,0.95
2022-09-03T09:47:39.353Z,1.05
2022-09-03T09:50:26.362Z,1.10
2022-09-03T09:53:06.909Z,1.00
2022-09-03T09:55:34.871Z,0.80
2022-09-03T09:58:14.023Z,1.30
2022-09-03T10:00:42.903Z,0.90
2022-09-03T10:03:13.798Z,1.00
2022-09-03T10:05:41.656Z,1.00
2022-09-03T10:08:21.457Z,0.98
2022-09-03T10:10:50.499Z,1.20
2022-09-03T10:13:40.580Z,1.10
2022-09-03T10:16:30.339Z,1.10
2022-09-03T10:19:06.871Z,1.08
2022-09-03T10:21:40.611Z,1.23
2022-09-03T10:24:23.095Z,1.42
2022-09-03T10:26:50.508Z,1.20
2022-09-03T10:29:22.222Z,1.20
2022-09-03T10:31:58.759Z,1.00
2022-09-03T10:34:38.688Z,1.23
2022-09-03T10:37:25.011Z,0.98
2022-09-03T10:39:58.992Z,1.00
2022-09-03T10:42:54.361Z,1.20
2022-09-03T10:45:47.331Z,1.15
2022-09-03T10:48:52.120Z,1.00
2022-09-03T10:51:34.197Z,1.10
2022-09-03T10:54:34.365Z,1.08
2022-09-03T10:57:45.219Z,1.10
2022-09-03T11:00:16.222Z,1.33
2022-09-03T11:03:05.459Z,1.30
2022-09-03T11:05:39.309Z,1.30
2022-09-03T11:08:17.019Z,1.35
2022-09-03T11:10:56.535Z,1.15
2022-09-03T11:13:31.306Z,1.25
2022-09-03T11:16:05.043Z,1.20
2022-09-03T11:18:40.871Z,1.27
2022-09-03T11:21:13.132Z,2.45
2022-09-03T11:23:58.190Z,1.40
2022-09-03T11:26:27.832Z,1.10
2022-09-03T11:29:01.147Z,1.10
2022-09-03T11:32:02.367Z,1.20
2022-09-03T11:34:34.003Z,1.38
2022-09-03T11:37:18.653Z,1.25
2022-09-03T11:39:56.568Z,1.98
2022-09-03T11:42:39.065Z,1.70
2022-09-03T11:45:32.564Z,2.20
2022-09-03T11:48:00.066Z,1.33
2022-09-03T11:50:33.234Z,1.10
2022-09-03T11:53:30.140Z,1.00
2022-09-03T11:56:13.004Z,1.30
2022-09-03T11:58:44.173Z,0.90
2022-09-03T12:01:17.649Z,1.48
2022-09-03T12:03:50.018Z,1.20
2022-09-03T12:06:39.143Z,1.50
2022-09-03T12:09:09.489Z,1.90
2022-09-03T12:12:06.041Z,1.48
2022-09-03T12:14:36.552Z,1.05
2022-09-03T12:18:15.134Z,1.40
2022-09-03T12:20:43.706Z,1.70
2022-09-03T12:23:14.568Z,1.58
2022-09-03T12:25:47.490Z,1.67
2022-09-03T12:28:23.498Z,1.63
2022-09-03T12:30:53.462Z,1.90
2022-09-03T12:33:23.386Z,1.30
2022-09-03T12:36:01.934Z,1.35
2022-09-03T12:38:30.520Z,1.25
2022-09-03T12:43:53.296Z,1.40
2022-09-03T12:46:24.706Z,1.40
2022-09-03T12:52:06.162Z,1.55
2022-09-03T12:54:39.190Z,1.58
2022-09-03T12:57:06.881Z,1.58
2022-09-03T12:59:38.123Z,1.48
2022-09-03T13:02:16.744Z,1.60
2022-09-03T13:04:46.266Z,1.33
2022-09-03T13:07:25.795Z,1.60
2022-09-03T13:10:04.188Z,1.45
2022-09-03T13:12:53.348Z,1.30
2022-09-03T13:15:26.142Z,1.50
2022-09-03T13:18:24.518Z,1.52
2022-09-03T13:21:30.439Z,1.40
2022-09-03T13:24:15.275Z,1.40
2022-09-03T13:26:49.509Z,1.60
2022-09-03T13:29:40.175Z,1.50
2022-09-03T13:32:36.318Z,1.38
2022-09-03T13:35:30.671Z,1.80
2022-09-03T13:38:23.035Z,1.48
2022-09-03T13:41:19.728Z,1.45
2022-09-03T13:43:57.582Z,1.50
2022-09-03T13:46:36.196Z,1.60
2022-09-03T13:49:50.098Z,1.45
2022-09-03T13:52:35.012Z,1.25
2022-09-03T13:55:09.350Z,1.30
2022-09-03T13:57:36.885Z,1.35
2022-09-03T14:00:13.323Z,1.67
2022-09-03T14:03:03.779Z,1.40
2022-09-03T14:06:09.380Z,1.75
2022-09-03T14:09:04.693Z,1.20
2022-09-03T14:11:59.099Z,1.50
2022-09-03T14:14:45.806Z,1.33
2022-09-03T14:17:25.274Z,1.50
2022-09-03T14:20:04.145Z,1.38
2022-09-03T14:22:59.092Z,1.50
2022-09-03T14:25:30.735Z,1.38
2022-09-03T14:28:36.438Z,2.05
2022-09-03T14:31:12.641Z,1.50
2022-09-03T14:33:48.128Z,1.52
2022-09-03T14:36:30.277Z,1.55
2022-09-03T14:39:28.400Z,1.40
2022-09-03T14:42:09.059Z,1.58
2022-09-03T14:44:55.369Z,1.92
2022-09-03T14:47:38.344Z,2.20
2022-09-03T14:50:29.059Z,1.70
2022-09-03T14:53:09.279Z,1.80
2022-09-03T14:55:57.906Z,2.22
2022-09-03T14:58:55.350Z,2.92
2022-09-03T15:01:37.605Z,2.10
2022-09-03T15:04:25.706Z,1.65
2022-09-03T15:07:08.310Z,1.42
2022-09-03T15:10:07.017Z,1.90
2022-09-03T15:12:43.306Z,2.10
2022-09-03T15:15:19.543Z,2.10
2022-09-03T15:17:55.973Z,1.65
2022-09-03T15:20:46.943Z,1.70
2022-09-03T15:23:38.103Z,1.90
2022-09-03T15:26:40.112Z,1.85
2022-09-03T15:29:16.328Z,1.80
2022-09-03T15:32:00.751Z,1.58
2022-09-03T15:34:48.423Z,1.50
2022-09-03T15:37:30.323Z,1.45
2022-09-03T15:40:15.888Z,1.50
2022-09-03T15:42:48.824Z,1.90
2022-09-03T15:45:28.586Z,1.50
2022-09-03T15:48:05.873Z,1.60
2022-09-03T15:50:50.373Z,1.52
2022-09-03T15:53:39.890Z,1.40
2022-09-03T15:56:23.661Z,1.67
2022-09-03T15:58:56.369Z,1.40
2022-09-03T16:01:36.969Z,1.45
2022-09-03T16:04:16.562Z,1.30
2022-09-03T16:07:21.578Z,1.60
2022-09-03T16:10:23.858Z,1.55
2022-09-03T16:12:53.616Z,1.50
2022-09-03T16:15:26.037Z,1.60
2022-09-03T16:18:10.967Z,1.67
2022-09-03T16:20:55.242Z,1.60
2022-09-03T16:23:28.019Z,1.60
2022-09-03T16:26:06.968Z,1.60
2022-09-03T16:28:48.099Z,1.63
2022-09-03T16:31:48.117Z,1.50
2022-09-03T16:35:03.707Z,1.30
2022-09-03T16:37:31.053Z,1.80
2022-09-03T16:40:01.207Z,1.65
2022-09-03T16:42:40.459Z,1.40
2022-09-03T16:45:17.041Z,1.40
2022-09-03T16:48:12.728Z,1.27
2022-09-03T16:51:07.451Z,1.38
2022-09-03T16:54:05.123Z,1.25
2022-09-03T16:56:58.791Z,1.40
2022-09-03T16:59:51.047Z,1.30
2022-09-03T17:05:45.718Z,1.92
2022-09-03T17:08:54.271Z,1.50
2022-09-03T17:11:39.836Z,1.25
2022-09-03T17:14:29.104Z,1.50
2022-09-03T17:17:08.896Z,1.77
2022-09-03T17:20:14.951Z,1.55
2022-09-03T17:23:09.851Z,1.60
2022-09-03T17:25:39.743Z,1.60
2022-09-03T17:28:42.668Z,1.42
2022-09-03T17:31:28.964Z,1.30
2022-09-03T17:34:13.466Z,1.52
2022-09-03T17:37:10.213Z,1.27
2022-09-03T17:40:02.327Z,1.30
2022-09-03T17:42:54.571Z,1.25
2022-09-03T17:45:36.523Z,1.58
2022-09-03T17:48:18.351Z,1.50
2022-09-03T17:50:59.375Z,1.38
2022-09-03T17:53:39.710Z,1.48
2022-09-03T17:56:20.249Z,1.73
2022-09-03T17:59:19.569Z,1.70
2022-09-03T18:02:19.132Z,1.80
2022-09-03T18:05:18.417Z,1.50
2022-09-03T18:08:02.749Z,1.60
2022-09-03T18:10:51.981Z,1.70
2022-09-03T18:13:56.810Z,1.77
2022-09-03T18:16:28.671Z,2.00
2022-09-03T18:22:08.995Z,2.05
2022-09-03T18:25:06.026Z,2.00
2022-09-03T18:27:53.971Z,2.00
2022-09-03T18:30:39.923Z,1.80
2022-09-03T18:33:26.134Z,1.95
2022-09-03T18:36:16.846Z,1.95
2022-09-03T18:39:03.122Z,2.65
2022-09-03T18:42:20.588Z,1.90
2022-09-03T18:45:42.276Z,2.20
2022-09-03T18:48:53.505Z,2.15
2022-09-03T18:52:17.103Z,2.10
2022-09-03T18:55:34.239Z,2.25
2022-09-03T18:58:49.627Z,1.80
2022-09-03T19:01:35.563Z,2.45
2022-09-03T19:04:33.978Z,2.17
2022-09-03T19:07:45.803Z,2.47
2022-09-03T19:10:43.570Z,2.10
2022-09-03T19:13:35.480Z,2.35
2022-09-03T19:16:29.882Z,2.60
2022-09-03T19:19:54.831Z,2.40
2022-09-03T19:22:55.732Z,2.67
2022-09-03T19:25:43.339Z,2.42
2022-09-03T19:28:37.656Z,2.40
2022-09-03T19:31:23.405Z,2.78
2022-09-03T19:34:32.859Z,2.45
2022-09-03T19:37:30.961Z,2.47
2022-09-03T19:40:35.892Z,2.97
2022-09-03T19:43:31.587Z,4.00
2022-09-03T19:46:29.332Z,3.40
2022-09-03T19:49:54.100Z,3.95
2022-09-03T19:52:46.389Z,3.20
2022-09-03T19:58:42.041Z,3.40
2022-09-03T20:01:28.396Z,3.75
2022-09-03T20:04:17.508Z,3.60
2022-09-03T20:07:05.270Z,3.65
2022-09-03T20:09:56.718Z,3.30
2022-09-03T20:12:28.926Z,3.70
2022-09-03T20:14:56.336Z,3.65
2022-09-03T20:17:43.503Z,3.28
2022-09-03T20:20:28.210Z,3.50
2022-09-03T20:22:58.102Z,2.60
2022-09-03T20:25:36.218Z,3.10
2022-09-03T20:28:18.444Z,2.97
2022-09-03T20:31:17.199Z,2.35
2022-09-03T20:33:47.611Z,3.03
2022-09-03T20:36:32.552Z,2.65
2022-09-03T20:39:21.203Z,2.50
2022-09-03T20:41:57.901Z,2.90
2022-09-03T20:44:53.409Z,2.95
2022-09-03T20:47:57.181Z,2.75
2022-09-03T20:50:37.450Z,2.50
2022-09-03T20:53:15.990Z,2.83
2022-09-03T20:55:49.023Z,2.58
2022-09-03T20:58:48.299Z,2.47
2022-09-03T21:01:52.240Z,2.50
2022-09-03T21:04:57.301Z,2.38
2022-09-03T21:07:59.811Z,2.25
2022-09-03T21:13:11.603Z,2.70
2022-09-03T21:15:46.821Z,2.70
2022-09-03T21:18:33.483Z,2.60
2022-09-03T21:21:43.865Z,3.00
2022-09-03T21:24:12.440Z,2.92
2022-09-03T21:26:50.720Z,2.80
2022-09-03T21:29:26.080Z,2.92
2022-09-03T21:32:04.494Z,2.72
2022-09-03T21:34:41.036Z,2.92
2022-09-03T21:37:13.554Z,3.00
2022-09-03T21:39:54.626Z,2.85
2022-09-03T21:42:36.530Z,2.90
2022-09-03T21:45:18.273Z,2.50
2022-09-03T21:47:53.818Z,2.65
2022-09-03T21:50:25.551Z,2.83
2022-09-03T21:53:12.954Z,2.67
2022-09-03T21:56:18.782Z,2.78
2022-09-03T21:59:23.743Z,2.47
2022-09-03T22:02:23.670Z,2.50
2022-09-03T22:04:51.783Z,2.58
2022-09-03T22:07:40.662Z,2.83
2022-09-03T22:10:21.068Z,2.95
2022-09-03T22:13:14.810Z,2.88
2022-09-03T22:15:50.672Z,2.90
2022-09-03T22:18:28.937Z,2.92
2022-09-03T22:21:19.823Z,2.47
2022-09-03T22:24:23.330Z,2.65
2022-09-03T22:27:10.685Z,2.40
2022-09-03T22:29:59.763Z,3.13
2022-09-03T22:32:40.541Z,2.35
2022-09-03T22:35:38.916Z,2.47
2022-09-03T22:38:40.293Z,2.67
2022-09-03T22:41:22.761Z,2.40
2022-09-03T22:44:07.495Z,2.70
2022-09-03T22:47:13.265Z,2.90
2022-09-03T22:49:47.472Z,3.10
2022-09-03T22:52:32.102Z,3.47
2022-09-03T22:55:11.551Z,2.70
2022-09-03T22:57:49.684Z,2.47
2022-09-03T23:00:17.971Z,2.90
2022-09-03T23:02:51.133Z,2.40
2022-09-03T23:05:35.560Z,2.80
2022-09-03T23:08:14.373Z,2.85
2022-09-03T23:10:53.888Z,2.42
2022-09-03T23:13:41.994Z,2.78
2022-09-03T23:16:32.645Z,2.85
2022-09-03T23:19:05.403Z,2.80
2022-09-03T23:21:41.912Z,2.83
2022-09-03T23:24:20.423Z,2.70
2022-09-03T23:26:51.552Z,2.80
2022-09-03T23:29:26.230Z,3.00
2022-09-03T23:31:57.622Z,2.90
2022-09-03T23:34:27.095Z,2.42
2022-09-03T23:37:34.877Z,3.05
2022-09-03T23:40:05.457Z,2.58
2022-09-03T23:42:54.163Z,2.78
2022-09-03T23:45:38.775Z,2.60
2022-09-03T23:48:45.244Z,2.78
2022-09-03T23:51:42.265Z,3.00
2022-09-03T23:54:18.575Z,2.70
2022-09-03T23:57:03.714Z,2.83
